Time;durP1;ratioP1;P1;durP2;ratioP2;P2;SDS_P1;SDS_P2;PMS_P1;PMS_P2;Temp;Humidity;BMP_temperature;BMP_pressure;BME280_temperature;BME280_humidity;BME280_pressure;Samples;Min_cycle;Max_cycle;Signal;HPM_P1;HPM_P2
2023/11/15 00:02:13;;;;;;;18.15;5.72;;;;;;;;;;10246146;29;20104;-67
2023/11/15 00:07:14;;;;;;;11.45;4.85;;;;;;;;;;10245896;29;20035;-67
2023/11/15 00:12:14;;;;;;;10.68;4.78;;;;;;;;;;10245325;29;20043;-64
2023/11/15 00:17:15;;;;;;;15.20;5.10;;;;;;;;;;10245175;29;20130;-62
2023/11/15 00:22:15;;;;;;;9.45;4.50;;;;;;;;;;10247298;28;20023;-63
2023/11/15 00:27:16;;;;;;;18.88;4.78;;;;;;;;;;10241121;28;20038;-64
2023/11/15 00:32:19;;;;;;;20.67;5.18;;;;;;;;;;10232411;28;20031;-63
2023/11/15 00:37:19;;;;;;;12.07;5.05;;;;;;;;;;10221356;28;20239;-62
2023/11/15 00:42:20;;;;;;;10.80;4.82;;;;;;;;;;10219294;28;20195;-62
2023/11/15 00:47:21;;;;;;;13.10;4.47;;;;;;;;;;10223046;29;20425;-64
2023/11/15 00:52:21;;;;;;;15.60;4.60;;;;;;;;;;10219149;29;20043;-63
2023/11/15 00:57:22;;;;;;;9.77;4.20;;;;;;;;;;10245135;28;20082;-62
2023/11/15 01:02:26;;;;;;;15.05;4.30;;;;;;;;;;10227870;28;20016;-63
2023/11/15 01:07:27;;;;;;;12.10;4.68;;;;;;;;;;10219012;28;20058;-62
2023/11/15 01:12:28;;;;;;;11.73;4.53;;;;;;;;;;10225652;28;20476;-63
2023/11/15 01:17:38;;;;;;;7.55;4.60;;;;;;;;;;10216734;29;20427;-63
2023/11/15 01:22:49;;;;;;;11.98;4.25;;;;;;;;;;10228232;29;20078;-63
2023/11/15 01:27:50;;;;;;;9.32;4.03;;;;;;;;;;10220579;28;20031;-64
2023/11/15 01:32:51;;;;;;;9.00;4.40;;;;;;;;;;10239708;29;20395;-64
2023/11/15 01:37:52;;;;;;;7.43;4.43;;;;;;;;;;10238833;28;20538;-65
2023/11/15 01:42:52;;;;;;;10.68;4.10;;;;;;;;;;10239590;28;20115;-65
2023/11/15 01:47:54;;;;;;;6.22;3.80;;;;;;;;;;10239081;28;20038;-63
2023/11/15 01:52:56;;;;;;;11.25;4.18;;;;;;;;;;10263410;28;20058;-63
2023/11/15 01:58:01;;;;;;;6.20;3.72;;;;;;;;;;10236438;29;20105;-64
2023/11/15 02:03:03;;;;;;;9.50;4.63;;;;;;;;;;10240483;28;20035;-63
2023/11/15 02:08:04;;;;;;;8.32;3.90;;;;;;;;;;10227361;29;20107;-64
2023/11/15 02:13:25;;;;;;;7.15;4.30;;;;;;;;;;10241646;28;20035;-63
2023/11/15 02:18:25;;;;;;;7.07;3.70;;;;;;;;;;10237804;29;20575;-64
2023/11/15 02:23:28;;;;;;;6.85;4.10;;;;;;;;;;10231099;29;20016;-65
2023/11/15 02:28:29;;;;;;;5.88;3.80;;;;;;;;;;10214558;28;20120;-66
2023/11/15 02:33:29;;;;;;;6.40;3.90;;;;;;;;;;10226723;28;20036;-63
2023/11/15 02:38:30;;;;;;;8.55;3.83;;;;;;;;;;10220489;28;20058;-65
2023/11/15 02:43:31;;;;;;;7.03;4.13;;;;;;;;;;10234951;28;20038;-63
2023/11/15 02:48:32;;;;;;;6.78;3.83;;;;;;;;;;10221462;28;20376;-64
2023/11/15 02:53:32;;;;;;;5.68;4.15;;;;;;;;;;10212659;28;20058;-65
2023/11/15 02:58:34;;;;;;;5.45;3.60;;;;;;;;;;10239563;29;20491;-64
2023/11/15 03:03:35;;;;;;;6.53;3.53;;;;;;;;;;10240259;28;20027;-62
2023/11/15 03:08:36;;;;;;;5.72;3.90;;;;;;;;;;10248954;28;20023;-63
2023/11/15 03:13:37;;;;;;;8.18;3.80;;;;;;;;;;10246919;28;20391;-64
2023/11/15 03:18:37;;;;;;;6.45;3.35;;;;;;;;;;10248352;28;20031;-65
2023/11/15 03:23:39;;;;;;;6.38;3.47;;;;;;;;;;10228422;29;20032;-61
2023/11/15 03:28:39;;;;;;;6.13;3.80;;;;;;;;;;10235794;28;20090;-62
2023/11/15 03:33:43;;;;;;;5.10;3.38;;;;;;;;;;10243181;29;20431;-62
2023/11/15 03:38:43;;;;;;;4.05;3.50;;;;;;;;;;10247075;28;20399;-62
2023/11/15 03:43:44;;;;;;;5.97;3.50;;;;;;;;;;10234278;28;20047;-62
2023/11/15 03:48:47;;;;;;;4.40;3.38;;;;;;;;;;10237294;29;20019;-61
2023/11/15 03:53:48;;;;;;;6.85;3.50;;;;;;;;;;10242136;29;20131;-62
2023/11/15 03:58:49;;;;;;;7.43;3.35;;;;;;;;;;10246378;28;20059;-62
2023/11/15 04:03:49;;;;;;;7.32;3.65;;;;;;;;;;10243951;29;20476;-62
2023/11/15 04:08:50;;;;;;;5.82;3.45;;;;;;;;;;10232692;28;20032;-65
2023/11/15 04:13:51;;;;;;;5.43;3.42;;;;;;;;;;10227695;28;20114;-64
2023/11/15 04:18:51;;;;;;;7.82;3.35;;;;;;;;;;10234799;28;20032;-66
2023/11/15 04:23:54;;;;;;;3.90;3.03;;;;;;;;;;10226404;29;20365;-64
2023/11/15 04:28:57;;;;;;;4.78;3.17;;;;;;;;;;10235530;28;20539;-66
2023/11/15 04:33:59;;;;;;;6.10;3.60;;;;;;;;;;10211128;28;20046;-65
2023/11/15 04:39:00;;;;;;;4.85;3.35;;;;;;;;;;10233197;28;20049;-67
2023/11/15 04:44:04;;;;;;;7.18;3.13;;;;;;;;;;10228873;28;20035;-64
2023/11/15 04:49:07;;;;;;;6.75;3.60;;;;;;;;;;10222152;28;20554;-67
2023/11/15 04:54:07;;;;;;;6.53;3.58;;;;;;;;;;10243225;29;20082;-66
2023/11/15 04:59:08;;;;;;;4.90;3.05;;;;;;;;;;10212499;29;20029;-63
2023/11/15 05:04:08;;;;;;;8.18;3.08;;;;;;;;;;10232467;28;20031;-66
2023/11/15 05:09:09;;;;;;;5.95;3.10;;;;;;;;;;10230439;28;20155;-64
2023/11/15 05:14:09;;;;;;;4.53;3.10;;;;;;;;;;10243386;28;20035;-64
2023/11/15 05:19:10;;;;;;;9.93;3.03;;;;;;;;;;10231242;28;20048;-62
2023/11/15 05:24:11;;;;;;;5.93;3.30;;;;;;;;;;10232050;29;20032;-64
2023/11/15 05:29:11;;;;;;;4.22;3.15;;;;;;;;;;10219513;28;20110;-62
2023/11/15 05:34:12;;;;;;;5.20;3.28;;;;;;;;;;10236726;28;20040;-62
2023/11/15 05:39:12;;;;;;;3.88;3.03;;;;;;;;;;10227738;29;20031;-62
2023/11/15 05:44:13;;;;;;;5.70;3.40;;;;;;;;;;10219564;28;20381;-62
2023/11/15 05:49:14;;;;;;;3.65;2.88;;;;;;;;;;10231602;29;20498;-62
2023/11/15 05:54:16;;;;;;;3.78;2.80;;;;;;;;;;10227339;28;20066;-62
2023/11/15 05:59:16;;;;;;;3.47;3.17;;;;;;;;;;10219968;29;20028;-62
2023/11/15 06:04:17;;;;;;;3.67;3.22;;;;;;;;;;10232857;28;20056;-63
2023/11/15 06:09:18;;;;;;;4.63;3.20;;;;;;;;;;10230441;28;20539;-63
2023/11/15 06:14:19;;;;;;;4.50;2.95;;;;;;;;;;10218891;28;20027;-64
2023/11/15 06:19:21;;;;;;;8.43;2.90;;;;;;;;;;10226930;28;20031;-67
2023/11/15 06:24:22;;;;;;;5.70;3.13;;;;;;;;;;10223138;28;20058;-62
2023/11/15 06:29:22;;;;;;;11.43;3.03;;;;;;;;;;10219108;28;20130;-62
2023/11/15 06:34:23;;;;;;;5.70;3.80;;;;;;;;;;10221394;28;20098;-60
2023/11/15 06:39:24;;;;;;;4.80;3.78;;;;;;;;;;10223959;28;20031;-59
2023/11/15 06:44:24;;;;;;;9.15;4.25;;;;;;;;;;10226503;28;20403;-60
2023/11/15 06:49:25;;;;;;;5.05;4.40;;;;;;;;;;10224738;28;20031;-59
2023/11/15 06:54:26;;;;;;;5.47;4.10;;;;;;;;;;10231815;28;20101;-62
2023/11/15 06:59:26;;;;;;;6.28;4.90;;;;;;;;;;10227496;28;20031;-59
2023/11/15 07:04:28;;;;;;;10.27;5.38;;;;;;;;;;10226701;28;20045;-60
2023/11/15 07:09:28;;;;;;;14.70;5.78;;;;;;;;;;10236958;28;20034;-60
2023/11/15 07:14:30;;;;;;;10.10;5.30;;;;;;;;;;10247921;28;20031;-60
2023/11/15 07:19:33;;;;;;;8.90;5.38;;;;;;;;;;10237847;29;20035;-60
2023/11/15 07:24:39;;;;;;;9.80;5.40;;;;;;;;;;10231418;29;20027;-59
2023/11/15 07:29:39;;;;;;;8.25;5.50;;;;;;;;;;10247665;29;20032;-59
2023/11/15 07:34:40;;;;;;;14.50;5.68;;;;;;;;;;10247788;29;20039;-59
2023/11/15 07:39:41;;;;;;;7.05;5.13;;;;;;;;;;10246718;28;20023;-59
2023/11/15 07:44:43;;;;;;;10.07;5.38;;;;;;;;;;10247384;29;20042;-59
2023/11/15 07:49:44;;;;;;;7.57;5.05;;;;;;;;;;10247563;29;20171;-58
2023/11/15 07:54:45;;;;;;;8.50;5.32;;;;;;;;;;10217162;29;20027;-59
2023/11/15 07:59:47;;;;;;;6.43;4.85;;;;;;;;;;10223175;28;20079;-60
2023/11/15 08:04:49;;;;;;;9.48;5.40;;;;;;;;;;10223155;28;20019;-60
2023/11/15 08:09:50;;;;;;;5.85;4.78;;;;;;;;;;10225606;29;20054;-61
2023/11/15 08:14:52;;;;;;;11.30;5.20;;;;;;;;;;10230884;28;20073;-60
2023/11/15 08:19:56;;;;;;;9.35;5.13;;;;;;;;;;10222565;28;20038;-61
2023/11/15 08:24:57;;;;;;;8.88;5.28;;;;;;;;;;10211972;29;20027;-60
2023/11/15 08:30:01;;;;;;;8.45;4.82;;;;;;;;;;10244795;29;20518;-61
2023/11/15 08:35:03;;;;;;;6.45;4.95;;;;;;;;;;10221280;28;20039;-61
2023/11/15 08:40:05;;;;;;;9.07;5.53;;;;;;;;;;10245123;29;20037;-61
2023/11/15 08:45:07;;;;;;;8.80;5.03;;;;;;;;;;10245528;29;20031;-60
2023/11/15 08:50:08;;;;;;;12.23;5.53;;;;;;;;;;10217541;29;20047;-60
2023/11/15 08:55:11;;;;;;;8.60;5.38;;;;;;;;;;10236754;28;20091;-59
2023/11/15 09:00:15;;;;;;;9.63;4.70;;;;;;;;;;10229432;28;20505;-61
2023/11/15 09:05:19;;;;;;;6.65;4.90;;;;;;;;;;10225665;29;20027;-61
2023/11/15 09:10:22;;;;;;;6.88;4.80;;;;;;;;;;10240623;29;20019;-61
2023/11/15 09:15:24;;;;;;;7.05;5.03;;;;;;;;;;10232580;28;20054;-60
2023/11/15 09:20:27;;;;;;;7.72;5.60;;;;;;;;;;10213979;29;20037;-59
2023/11/15 09:25:31;;;;;;;6.75;5.50;;;;;;;;;;10226820;28;20434;-59
2023/11/15 09:30:31;;;;;;;6.25;5.25;;;;;;;;;;10234258;29;20436;-59
2023/11/15 09:35:34;;;;;;;7.60;5.00;;;;;;;;;;10228253;29;20092;-59
2023/11/15 09:40:35;;;;;;;7.95;5.35;;;;;;;;;;10228205;28;20495;-59
2023/11/15 09:45:41;;;;;;;6.82;5.45;;;;;;;;;;10228142;29;20031;-59
2023/11/15 09:50:49;;;;;;;9.32;5.85;;;;;;;;;;10227403;28;20388;-59
2023/11/15 09:55:50;;;;;;;5.90;4.72;;;;;;;;;;10239647;28;20027;-59
2023/11/15 10:00:51;;;;;;;9.27;4.97;;;;;;;;;;10215075;28;20035;-61
2023/11/15 10:05:57;;;;;;;7.47;5.00;;;;;;;;;;10226893;28;20038;-60
2023/11/15 10:11:06;;;;;;;9.70;5.38;;;;;;;;;;10238474;29;20028;-61
2023/11/15 10:16:23;;;;;;;5.95;4.88;;;;;;;;;;10226088;29;20050;-60
2023/11/15 10:21:24;;;;;;;5.93;4.53;;;;;;;;;;10214125;28;20063;-61
2023/11/15 10:26:38;;;;;;;10.60;5.47;;;;;;;;;;10214033;29;20039;-60
2023/11/15 10:31:53;;;;;;;5.88;4.47;;;;;;;;;;10239667;28;20053;-60
2023/11/15 10:37:07;;;;;;;7.03;4.97;;;;;;;;;;10249469;28;20042;-60
2023/11/15 10:42:10;;;;;;;10.05;5.10;;;;;;;;;;10224800;28;20016;-61
2023/11/15 10:47:19;;;;;;;5.78;4.75;;;;;;;;;;10249587;29;20383;-59
2023/11/15 10:52:22;;;;;;;7.07;4.35;;;;;;;;;;10258696;28;20039;-61
2023/11/15 10:57:23;;;;;;;6.38;4.55;;;;;;;;;;10224747;28;20035;-59
2023/11/15 11:02:25;;;;;;;5.68;4.78;;;;;;;;;;10212543;28;20067;-59
2023/11/15 11:07:38;;;;;;;6.53;4.88;;;;;;;;;;10234378;28;20042;-59
2023/11/15 11:12:40;;;;;;;6.95;4.72;;;;;;;;;;10249809;28;20031;-59
2023/11/15 11:17:42;;;;;;;7.53;4.47;;;;;;;;;;10234927;28;20031;-60
2023/11/15 11:23:22;;;;;;;7.10;4.80;;;;;;;;;;10236137;28;20081;-60
2023/11/15 11:28:23;;;;;;;6.05;4.72;;;;;;;;;;10225189;28;20036;-60
2023/11/15 11:33:24;;;;;;;5.35;4.15;;;;;;;;;;10222770;29;20071;-59
2023/11/15 11:38:37;;;;;;;7.07;4.65;;;;;;;;;;10222032;28;20043;-59
2023/11/15 11:43:38;;;;;;;9.80;4.80;;;;;;;;;;10236399;28;20078;-60
2023/11/15 11:48:39;;;;;;;6.45;4.47;;;;;;;;;;10210510;29;20038;-60
2023/11/15 11:53:46;;;;;;;6.07;4.57;;;;;;;;;;10251707;29;20039;-59
2023/11/15 11:58:48;;;;;;;5.88;4.35;;;;;;;;;;10255191;29;20024;-59
2023/11/15 12:04:01;;;;;;;5.35;4.20;;;;;;;;;;10254810;28;20070;-59
2023/11/15 12:09:03;;;;;;;5.05;4.07;;;;;;;;;;10254755;28;20374;-59
2023/11/15 12:14:12;;;;;;;5.80;4.55;;;;;;;;;;10254525;29;20435;-60
2023/11/15 12:19:13;;;;;;;4.78;4.20;;;;;;;;;;10254839;29;20034;-59
2023/11/15 12:24:22;;;;;;;4.55;4.00;;;;;;;;;;10254177;29;20023;-59
2023/11/15 12:29:26;;;;;;;7.18;4.93;;;;;;;;;;10253990;28;20062;-59
2023/11/15 12:34:28;;;;;;;6.82;4.50;;;;;;;;;;10253874;29;20035;-60
2023/11/15 12:39:37;;;;;;;8.00;4.25;;;;;;;;;;10253811;28;20115;-60
2023/11/15 12:44:46;;;;;;;7.40;4.68;;;;;;;;;;10253686;28;20039;-59
2023/11/15 12:49:48;;;;;;;5.78;4.95;;;;;;;;;;10253408;28;20038;-60
2023/11/15 12:54:57;;;;;;;5.22;4.20;;;;;;;;;;10254162;29;20045;-60
2023/11/15 12:59:59;;;;;;;6.80;4.38;;;;;;;;;;10254650;28;20028;-60
2023/11/15 13:05:05;;;;;;;5.50;4.30;;;;;;;;;;10261566;29;20042;-59
2023/11/15 13:10:07;;;;;;;9.70;4.97;;;;;;;;;;10261250;29;20038;-60
2023/11/15 13:15:17;;;;;;;6.95;4.05;;;;;;;;;;10261633;29;20023;-60
2023/11/15 13:20:20;;;;;;;7.82;4.35;;;;;;;;;;10260901;29;20027;-60
2023/11/15 13:25:21;;;;;;;4.95;3.92;;;;;;;;;;10260738;29;20027;-60
2023/11/15 13:30:22;;;;;;;5.60;4.75;;;;;;;;;;10261098;29;20358;-59
2023/11/15 13:35:26;;;;;;;5.20;4.35;;;;;;;;;;10260286;29;20062;-59
2023/11/15 13:40:27;;;;;;;5.53;4.25;;;;;;;;;;10260134;29;20023;-59
2023/11/15 13:45:29;;;;;;;5.93;4.70;;;;;;;;;;10260003;28;20031;-59
2023/11/15 13:50:31;;;;;;;5.68;4.38;;;;;;;;;;10259433;29;20043;-58
2023/11/15 13:55:33;;;;;;;5.85;4.57;;;;;;;;;;10259597;29;20066;-60
2023/11/15 14:00:37;;;;;;;6.30;4.38;;;;;;;;;;10260049;29;20047;-59
2023/11/15 14:05:43;;;;;;;5.65;4.45;;;;;;;;;;10259876;29;20031;-61
2023/11/15 14:10:45;;;;;;;6.60;4.10;;;;;;;;;;10260750;28;20059;-61
2023/11/15 14:15:47;;;;;;;4.60;3.83;;;;;;;;;;10258187;28;20090;-61
2023/11/15 14:20:51;;;;;;;6.75;4.28;;;;;;;;;;10258579;29;20078;-61
2023/11/15 14:25:53;;;;;;;5.05;4.55;;;;;;;;;;10258513;29;20035;-61
2023/11/15 14:30:57;;;;;;;8.07;4.38;;;;;;;;;;10258255;28;20054;-61
2023/11/15 14:35:59;;;;;;;6.68;4.50;;;;;;;;;;10258011;29;20031;-61
2023/11/15 14:41:01;;;;;;;5.15;4.13;;;;;;;;;;10258536;29;20050;-61
2023/11/15 14:46:02;;;;;;;9.10;4.53;;;;;;;;;;10259613;29;20027;-61
2023/11/15 14:51:04;;;;;;;5.47;4.50;;;;;;;;;;10257425;29;20047;-60
2023/11/15 14:56:07;;;;;;;5.22;4.35;;;;;;;;;;10257942;29;20089;-60
2023/11/15 15:01:08;;;;;;;5.00;4.13;;;;;;;;;;10257169;29;20055;-59
2023/11/15 15:06:10;;;;;;;7.15;4.85;;;;;;;;;;10257065;29;20065;-59
2023/11/15 15:11:12;;;;;;;6.57;4.22;;;;;;;;;;10257048;29;20031;-60
2023/11/15 15:16:15;;;;;;;6.38;4.78;;;;;;;;;;10257143;29;20085;-60
2023/11/15 15:21:17;;;;;;;6.68;4.50;;;;;;;;;;10256331;28;20188;-61
2023/11/15 15:26:22;;;;;;;6.55;3.88;;;;;;;;;;10255945;28;20447;-61
2023/11/15 15:31:24;;;;;;;6.95;4.40;;;;;;;;;;10256063;28;20039;-61
2023/11/15 15:36:25;;;;;;;8.60;4.35;;;;;;;;;;10256387;28;20031;-60
2023/11/15 15:41:28;;;;;;;7.13;3.97;;;;;;;;;;10255628;29;20102;-61
2023/11/15 15:46:32;;;;;;;5.70;4.53;;;;;;;;;;10255567;29;20497;-59
2023/11/15 15:51:34;;;;;;;5.75;4.38;;;;;;;;;;10255483;28;20487;-59
2023/11/15 15:56:36;;;;;;;4.82;4.32;;;;;;;;;;10255145;29;20042;-59
2023/11/15 16:01:37;;;;;;;7.20;5.13;;;;;;;;;;10254999;29;20031;-59
2023/11/15 16:06:40;;;;;;;6.53;4.93;;;;;;;;;;10254812;29;20034;-61
2023/11/15 16:11:41;;;;;;;5.13;4.05;;;;;;;;;;10255116;28;20035;-59
2023/11/15 16:16:47;;;;;;;9.80;4.70;;;;;;;;;;10255004;29;20031;-61
2023/11/15 16:21:49;;;;;;;6.30;4.72;;;;;;;;;;10254270;29;20039;-61
2023/11/15 16:26:51;;;;;;;10.40;5.35;;;;;;;;;;10254731;28;20039;-61
2023/11/15 16:31:54;;;;;;;7.97;4.88;;;;;;;;;;10254036;29;20027;-62
2023/11/15 16:36:55;;;;;;;6.22;4.85;;;;;;;;;;10253629;28;20031;-59
2023/11/15 16:41:58;;;;;;;8.73;5.35;;;;;;;;;;10253762;29;20031;-61
2023/11/15 16:47:00;;;;;;;6.00;5.00;;;;;;;;;;10253785;29;20031;-60
2023/11/15 16:52:02;;;;;;;8.60;5.38;;;;;;;;;;10253444;29;20035;-61
2023/11/15 16:57:04;;;;;;;11.05;5.40;;;;;;;;;;10254100;29;20490;-61
2023/11/15 17:02:06;;;;;;;6.50;5.25;;;;;;;;;;10253931;29;20027;-61
2023/11/15 17:07:07;;;;;;;6.05;4.80;;;;;;;;;;10253282;29;20035;-60
2023/11/15 17:12:11;;;;;;;6.68;5.47;;;;;;;;;;10253266;29;20035;-61
2023/11/15 17:17:14;;;;;;;10.52;5.28;;;;;;;;;;10253025;28;20066;-61
2023/11/15 17:22:16;;;;;;;8.45;5.78;;;;;;;;;;10253020;28;20352;-60
2023/11/15 17:27:18;;;;;;;5.72;4.95;;;;;;;;;;10252962;29;20027;-58
2023/11/15 17:32:20;;;;;;;14.05;5.88;;;;;;;;;;10253382;29;20027;-59
2023/11/15 17:37:21;;;;;;;8.45;5.93;;;;;;;;;;10252746;29;20082;-62
2023/11/15 17:42:23;;;;;;;7.57;5.45;;;;;;;;;;10253243;29;20035;-62
2023/11/15 17:47:25;;;;;;;11.70;7.00;;;;;;;;;;10254345;28;20082;-60
2023/11/15 17:52:27;;;;;;;10.30;6.80;;;;;;;;;;10259511;28;20043;-62
2023/11/15 17:57:33;;;;;;;12.35;6.78;;;;;;;;;;10259774;29;20019;-62
2023/11/15 18:02:35;;;;;;;10.25;6.40;;;;;;;;;;10259492;29;20162;-60
2023/11/15 18:07:37;;;;;;;9.57;6.60;;;;;;;;;;10259338;29;20479;-61
2023/11/15 18:12:43;;;;;;;7.38;6.50;;;;;;;;;;10259069;29;20054;-62
2023/11/15 18:17:45;;;;;;;11.88;7.22;;;;;;;;;;10259591;29;20034;-62
2023/11/15 18:22:48;;;;;;;15.38;6.95;;;;;;;;;;10258752;29;20083;-62
2023/11/15 18:27:49;;;;;;;9.38;7.47;;;;;;;;;;10259236;28;20114;-62
2023/11/15 18:32:52;;;;;;;13.20;7.28;;;;;;;;;;10258511;29;20039;-63
2023/11/15 18:37:54;;;;;;;10.15;7.75;;;;;;;;;;10258246;28;20033;-63
2023/11/15 18:42:57;;;;;;;11.75;8.10;;;;;;;;;;10257900;29;20039;-63
2023/11/15 18:47:58;;;;;;;10.63;7.80;;;;;;;;;;10257760;29;20039;-63
2023/11/15 18:52:59;;;;;;;13.98;8.82;;;;;;;;;;10257444;28;20050;-62
2023/11/15 18:58:00;;;;;;;10.95;7.95;;;;;;;;;;10250110;28;20042;-59
2023/11/15 19:03:00;;;;;;;12.23;8.50;;;;;;;;;;10220997;28;20036;-59
2023/11/15 19:08:01;;;;;;;10.50;8.27;;;;;;;;;;10220695;28;20028;-58
2023/11/15 19:13:02;;;;;;;13.43;8.55;;;;;;;;;;10218718;28;20032;-60
2023/11/15 19:18:03;;;;;;;12.85;8.43;;;;;;;;;;10224229;28;20039;-59
2023/11/15 19:23:06;;;;;;;9.20;7.82;;;;;;;;;;10205517;28;20156;-60
2023/11/15 19:28:07;;;;;;;10.85;7.38;;;;;;;;;;10222269;28;20031;-61
2023/11/15 19:33:08;;;;;;;12.63;7.57;;;;;;;;;;10241258;29;20078;-61
2023/11/15 19:38:10;;;;;;;14.07;7.57;;;;;;;;;;10245313;29;20033;-61
2023/11/15 19:43:11;;;;;;;9.00;7.20;;;;;;;;;;10233432;28;20390;-61
2023/11/15 19:48:11;;;;;;;10.30;7.75;;;;;;;;;;10239966;28;20038;-58
2023/11/15 19:53:12;;;;;;;10.60;7.55;;;;;;;;;;10255574;28;20106;-61
2023/11/15 19:58:13;;;;;;;13.93;7.85;;;;;;;;;;10228377;28;20039;-59
2023/11/15 20:03:14;;;;;;;12.02;8.45;;;;;;;;;;10267726;28;20126;-59
2023/11/15 20:08:15;;;;;;;12.95;8.70;;;;;;;;;;10239491;28;20042;-59
2023/11/15 20:13:16;;;;;;;11.82;8.73;;;;;;;;;;10248569;28;20402;-58
2023/11/15 20:18:17;;;;;;;11.45;8.02;;;;;;;;;;10235778;28;20028;-59
2023/11/15 20:23:18;;;;;;;14.43;9.20;;;;;;;;;;10241230;28;20027;-59
2023/11/15 20:28:20;;;;;;;15.23;9.20;;;;;;;;;;10245281;28;20035;-59
2023/11/15 20:33:21;;;;;;;12.90;9.55;;;;;;;;;;10256950;28;20038;-61
2023/11/15 20:38:24;;;;;;;13.68;9.80;;;;;;;;;;10248058;28;20487;-62
2023/11/15 20:43:25;;;;;;;15.73;10.63;;;;;;;;;;10224767;28;20045;-63
2023/11/15 20:48:27;;;;;;;21.02;10.98;;;;;;;;;;10236556;28;20023;-61
2023/11/15 20:53:28;;;;;;;24.23;10.98;;;;;;;;;;10243746;28;20051;-62
2023/11/15 20:58:29;;;;;;;17.40;10.52;;;;;;;;;;10245094;28;20114;-62
2023/11/15 21:03:31;;;;;;;23.98;10.80;;;;;;;;;;10236656;29;20494;-62
2023/11/15 21:08:34;;;;;;;15.55;10.30;;;;;;;;;;10233735;28;20031;-62
2023/11/15 21:13:36;;;;;;;22.88;10.70;;;;;;;;;;10244996;28;20109;-63
2023/11/15 21:18:39;;;;;;;19.40;10.52;;;;;;;;;;10246580;28;20692;-62
2023/11/15 21:23:41;;;;;;;23.80;9.93;;;;;;;;;;10241591;28;20573;-62
2023/11/15 21:28:41;;;;;;;21.90;10.80;;;;;;;;;;10243155;28;20031;-59
2023/11/15 21:33:42;;;;;;;14.55;9.50;;;;;;;;;;10242873;28;20036;-63
2023/11/15 21:38:44;;;;;;;16.60;9.18;;;;;;;;;;10246637;28;20359;-62
2023/11/15 21:43:46;;;;;;;17.88;9.25;;;;;;;;;;10251184;28;20486;-62
2023/11/15 21:48:47;;;;;;;16.48;9.90;;;;;;;;;;10256136;28;20483;-59
2023/11/15 21:53:48;;;;;;;16.33;9.43;;;;;;;;;;10247581;28;20090;-59
2023/11/15 21:58:49;;;;;;;16.67;9.00;;;;;;;;;;10247087;28;20446;-59
2023/11/15 22:03:49;;;;;;;14.35;9.48;;;;;;;;;;10246207;28;20049;-59
2023/11/15 22:08:52;;;;;;;15.82;10.00;;;;;;;;;;10245744;28;20070;-60
2023/11/15 22:13:52;;;;;;;17.90;9.05;;;;;;;;;;10244789;28;20105;-59
2023/11/15 22:18:56;;;;;;;13.45;8.15;;;;;;;;;;10246567;28;20082;-58
2023/11/15 22:23:56;;;;;;;15.43;9.27;;;;;;;;;;10249597;29;20040;-59
2023/11/15 22:28:57;;;;;;;14.70;9.00;;;;;;;;;;10247733;29;20035;-60
2023/11/15 22:33:57;;;;;;;15.32;9.20;;;;;;;;;;10248728;28;20043;-60
2023/11/15 22:39:00;;;;;;;13.30;8.32;;;;;;;;;;10249301;28;20034;-59
2023/11/15 22:44:00;;;;;;;13.50;8.90;;;;;;;;;;10248731;28;20031;-59
2023/11/15 22:49:01;;;;;;;12.52;8.50;;;;;;;;;;10245463;28;20478;-61
2023/11/15 22:54:01;;;;;;;13.00;8.70;;;;;;;;;;10243403;28;20517;-59
2023/11/15 22:59:02;;;;;;;20.40;9.10;;;;;;;;;;10247965;29;20402;-62
2023/11/15 23:04:04;;;;;;;14.57;8.30;;;;;;;;;;10248124;28;20031;-62
2023/11/15 23:09:05;;;;;;;12.45;8.10;;;;;;;;;;10246023;28;20035;-60
2023/11/15 23:14:06;;;;;;;15.77;9.02;;;;;;;;;;10247021;28;20502;-59
2023/11/15 23:19:07;;;;;;;10.25;8.70;;;;;;;;;;10246819;28;20182;-58
2023/11/15 23:24:08;;;;;;;11.43;9.23;;;;;;;;;;10244723;28;20027;-62
2023/11/15 23:29:10;;;;;;;13.27;9.75;;;;;;;;;;10246795;28;20046;-62
2023/11/15 23:34:11;;;;;;;16.42;8.95;;;;;;;;;;10246521;28;20035;-64
2023/11/15 23:39:12;;;;;;;12.93;9.23;;;;;;;;;;10244726;28;20039;-66
2023/11/15 23:44:12;;;;;;;13.35;9.27;;;;;;;;;;10244612;29;20039;-64
2023/11/15 23:49:14;;;;;;;12.15;8.93;;;;;;;;;;10245621;28;20066;-66
2023/11/15 23:54:15;;;;;;;12.35;9.35;;;;;;;;;;10245173;29;20066;-64
2023/11/15 23:59:18;;;;;;;17.17;9.07;;;;;;;;;;10246182;29;20102;-62
